Pocasset, MA (02559)

5:27 PM EDT on May 30, 2015 (GMT -0400)
Barlow's Landing | | Change Station
CLOSE
Current Station
Personal Weather Station
Location: Bourne, MA
Elevation: 20 ft
Nearby Weather Stations

Elev 20 ft 41.69 °N, 70.63 °W | Updated 37 seconds ago

Clear
Clear
68.4 °F
Feels Like 68.4 °F
N
12.7
Wind Variable Wind from SSW
Gusts 12.7 mph

Today
High -- | Low -- °F
--% Chance of Precip.
Yesterday
High -- | Low -- °F
Precip. -- in
5:11 AM 8:08 PM
Waxing Gibbous, 92% visible
Pressure 30.13 in
Visibility 10.0 miles
Clouds Clear
Dew Point 64 °F
Humidity 86%
Rainfall 0.00 in
Snow Depth Not available.
UV 3 out of 12
Pollen 9.50 out of 12
Air Quality Not available.
Flu Activity Local Activity
METAR KFMH 302115Z AUTO 22019G25KT 10SM CLR 24/18 A3013 RMK AO2

More Conditions Fewer Conditions

Pressure 30.13 in
Visibility 10.0 miles
Clouds Clear
Dew Point 64 °F
Humidity 86%
Rainfall 0.00 in
Snow Depth Not available.
UV 3 out of 12
Pollen 9.50 out of 12
Air Quality Not available.
Flu Activity Local Activity
METAR KFMH 302115Z AUTO 22019G25KT 10SM CLR 24/18 A3013 RMK AO2

More Conditions Fewer Conditions

10-Day Weather Forecast

Almanac

Astronomy

May. 30, 2015 Rise Set
Actual Time
Civil Twilight
Nautical Twilight
Astronomical Twilight
Moon
Length of Visible Light
Length of Day
Tomorrow will be .
, % of the Moon is Illuminated

Today's Extremes

State Highs State Lows

Community

WunderPhotos

Upload Photos

1,825,608 photos uploaded!

WunderBlogs® & News

Nearby

Air Quality

  Air Quality AQ Index Pollutant
Not available.

Snow Depth

Station Depth Elevation

Earthquake Activity

City Distance Mag. Time & Date
Minimum magnitude displayed is 2.5.

Coastal Water Temperatures

Place Temperature

Stations

Nearby Weather Stations

Station Location Temp. Windchill Dew Point Humidity Wind Precip. Elev Updated Type